createdAt,value
2022-08-08T00:00:50.390Z,101718.41
2022-08-08T00:03:37.845Z,101723.81
2022-08-08T00:06:34.154Z,101720.78
2022-08-08T00:09:21.129Z,101721.66
2022-08-08T00:12:06.986Z,101720.44
2022-08-08T00:15:08.473Z,101717.81
2022-08-08T00:17:58.540Z,101724.19
2022-08-08T00:20:46.889Z,101723.16
2022-08-08T00:23:51.826Z,101729.25
2022-08-08T00:26:29.790Z,101722.50
2022-08-08T00:29:08.099Z,101722.88
2022-08-08T00:32:33.010Z,101718.28
2022-08-08T00:35:07.658Z,101722.66
2022-08-08T00:38:01.632Z,101723.03
2022-08-08T00:41:11.526Z,101724.25
2022-08-08T00:43:46.341Z,101727.72
2022-08-08T00:46:57.897Z,101734.19
2022-08-08T00:50:07.202Z,101730.22
2022-08-08T00:52:56.906Z,101730.44
2022-08-08T00:56:02.156Z,101730.09
2022-08-08T00:59:07.364Z,101726.81
2022-08-08T01:02:03.234Z,101727.44
2022-08-08T01:07:56.998Z,101735.50
2022-08-08T01:10:45.227Z,101726.13
2022-08-08T01:13:53.057Z,101725.75
2022-08-08T01:16:46.603Z,101725.38
2022-08-08T01:20:02.549Z,101729.38
2022-08-08T01:22:55.743Z,101719.59
2022-08-08T01:25:59.529Z,101722.53
2022-08-08T01:29:00.062Z,101723.81
2022-08-08T01:32:12.818Z,101722.00
2022-08-08T01:34:57.741Z,101726.25
2022-08-08T01:37:58.548Z,101720.97
2022-08-08T01:40:47.386Z,101723.16
2022-08-08T01:43:16.821Z,101714.53
2022-08-08T01:45:56.151Z,101716.28
2022-08-08T01:48:48.118Z,101718.81
2022-08-08T01:51:31.872Z,101713.41
2022-08-08T01:55:25.561Z,101704.44
2022-08-08T01:58:04.379Z,101700.19
2022-08-08T02:00:20.105Z,101696.78
2022-08-08T02:02:57.187Z,101709.22
2022-08-08T02:05:56.961Z,101699.13
2022-08-08T02:09:03.269Z,101700.81
2022-08-08T02:11:58.719Z,101702.00
2022-08-08T02:14:49.748Z,101703.31
2022-08-08T02:17:53.892Z,101701.03
2022-08-08T02:21:01.781Z,101702.44
2022-08-08T02:23:32.054Z,101709.19
2022-08-08T02:26:10.233Z,101703.91
2022-08-08T02:28:58.920Z,101714.06
2022-08-08T02:31:58.785Z,101713.31
2022-08-08T02:35:06.386Z,101714.41
2022-08-08T02:37:56.759Z,101717.91
2022-08-08T02:40:53.128Z,101718.91
2022-08-08T02:44:43.074Z,101716.38
2022-08-08T02:46:51.917Z,101710.81
2022-08-08T02:49:48.004Z,101719.66
2022-08-08T02:52:42.445Z,101715.94
2022-08-08T02:55:24.868Z,101717.84
2022-08-08T02:58:28.897Z,101714.75
2022-08-08T03:01:19.077Z,101711.41
2022-08-08T03:05:05.253Z,101720.69
2022-08-08T03:07:41.328Z,101722.56
2022-08-08T03:10:53.431Z,101721.25
2022-08-08T03:16:01.860Z,101729.00
2022-08-08T03:16:37.899Z,101727.66
2022-08-08T03:19:50.470Z,101729.16
2022-08-08T03:22:38.751Z,101724.44
2022-08-08T03:25:14.407Z,101728.66
2022-08-08T03:27:57.291Z,101730.16
2022-08-08T03:30:25.002Z,101722.91
2022-08-08T03:33:55.934Z,101727.44
2022-08-08T03:35:57.898Z,101730.53
2022-08-08T03:38:56.151Z,101724.47
2022-08-08T03:42:03.816Z,101726.16
2022-08-08T03:43:59.589Z,101730.56
2022-08-08T03:46:32.537Z,101740.84
2022-08-08T03:49:10.018Z,101737.63
2022-08-08T03:51:56.023Z,101735.44
2022-08-08T03:54:52.025Z,101743.03
2022-08-08T03:58:30.109Z,101741.31
2022-08-08T04:00:11.853Z,101747.56
2022-08-08T04:02:47.306Z,101746.59
2022-08-08T04:05:27.424Z,101746.41
2022-08-08T04:07:56.157Z,101746.44
2022-08-08T04:10:24.713Z,101754.06
2022-08-08T04:12:51.274Z,101747.47
2022-08-08T04:15:18.010Z,101755.56
2022-08-08T04:17:59.051Z,101752.69
2022-08-08T04:20:28.560Z,101752.69
2022-08-08T04:22:57.156Z,101759.31
2022-08-08T04:25:30.162Z,101753.91
2022-08-08T04:28:02.535Z,101751.19
2022-08-08T04:30:47.706Z,101762.28
2022-08-08T04:33:15.482Z,101771.78
2022-08-08T04:35:50.794Z,101771.81
2022-08-08T04:38:21.626Z,101767.69
2022-08-08T04:40:54.367Z,101770.06
2022-08-08T04:43:32.471Z,101781.94
2022-08-08T04:46:09.333Z,101772.78
2022-08-08T04:48:35.805Z,101775.81
2022-08-08T04:51:02.302Z,101785.00
2022-08-08T04:54:27.487Z,101785.34
2022-08-08T04:56:17.583Z,101777.06
2022-08-08T04:58:44.429Z,101778.94
2022-08-08T05:01:14.996Z,101786.38
2022-08-08T05:04:09.956Z,101781.94
2022-08-08T05:06:29.063Z,101782.97
2022-08-08T05:08:56.101Z,101781.97
2022-08-08T05:11:29.155Z,101785.53
2022-08-08T05:14:06.069Z,101781.97
2022-08-08T05:16:54.581Z,101785.84
2022-08-08T05:20:09.579Z,101785.00
2022-08-08T05:22:08.706Z,101783.31
2022-08-08T05:24:38.406Z,101780.94
2022-08-08T05:27:06.378Z,101780.94
2022-08-08T05:29:35.869Z,101775.72
2022-08-08T05:32:06.129Z,101781.81
2022-08-08T05:34:42.106Z,101785.31
2022-08-08T05:37:17.245Z,101787.34
2022-08-08T05:39:56.816Z,101783.59
2022-08-08T05:42:30.732Z,101783.22
2022-08-08T05:45:10.135Z,101792.22
2022-08-08T05:48:00.476Z,101788.00
2022-08-08T05:50:30.190Z,101790.66
2022-08-08T05:53:55.379Z,101799.47
2022-08-08T05:56:07.704Z,101790.31
2022-08-08T05:58:39.459Z,101794.22
2022-08-08T06:01:55.370Z,101798.94
2022-08-08T06:04:22.859Z,101798.53
2022-08-08T06:06:53.750Z,101794.59
2022-08-08T06:10:00.577Z,101799.81
2022-08-08T06:12:18.639Z,101792.66
2022-08-08T06:14:57.782Z,101800.72
2022-08-08T06:17:32.114Z,101810.56
2022-08-08T06:20:13.327Z,101805.59
2022-08-08T06:22:43.171Z,101799.78
2022-08-08T06:25:10.344Z,101807.91
2022-08-08T06:27:48.434Z,101811.78
2022-08-08T06:30:20.219Z,101806.22
2022-08-08T06:33:01.333Z,101815.22
2022-08-08T06:36:09.168Z,101812.50
2022-08-08T06:38:28.744Z,101804.91
2022-08-08T06:41:04.121Z,101812.59
2022-08-08T06:43:37.468Z,101813.19
2022-08-08T06:46:08.584Z,101810.97
2022-08-08T06:48:36.394Z,101811.47
2022-08-08T06:51:07.503Z,101817.59
2022-08-08T06:53:40.010Z,101816.66
2022-08-08T06:56:17.975Z,101822.94
2022-08-08T06:58:49.720Z,101817.03
2022-08-08T07:02:16.602Z,101825.75
2022-08-08T07:04:38.966Z,101817.59
2022-08-08T07:07:10.472Z,101816.09
2022-08-08T07:09:56.268Z,101820.09
2022-08-08T07:12:43.275Z,101818.94
2022-08-08T07:15:31.938Z,101818.13
2022-08-08T07:18:36.097Z,101821.22
2022-08-08T07:20:57.368Z,101823.56
2022-08-08T07:23:57.687Z,101823.66
2022-08-08T07:26:21.697Z,101825.09
2022-08-08T07:28:58.716Z,101825.22
2022-08-08T07:31:35.473Z,101822.53
2022-08-08T07:34:03.905Z,101825.66
2022-08-08T07:36:37.141Z,101826.75
2022-08-08T07:39:03.957Z,101823.81
2022-08-08T07:42:04.319Z,101828.16
2022-08-08T07:44:40.560Z,101827.59
2022-08-08T07:47:06.031Z,101830.94
2022-08-08T07:49:32.810Z,101826.91
2022-08-08T07:52:02.419Z,101830.56
2022-08-08T07:54:37.436Z,101836.16
2022-08-08T07:57:17.050Z,101833.72
2022-08-08T08:00:16.086Z,101835.09
2022-08-08T08:02:47.264Z,101842.88
2022-08-08T08:05:33.322Z,101840.75
2022-08-08T08:08:06.456Z,101844.66
2022-08-08T08:10:36.182Z,101844.97
2022-08-08T08:13:43.137Z,101847.44
2022-08-08T08:16:32.431Z,101843.56
2022-08-08T08:19:05.542Z,101841.13
2022-08-08T08:21:57.328Z,101845.66
2022-08-08T08:24:30.950Z,101841.28
2022-08-08T08:27:00.051Z,101839.81
2022-08-08T08:29:29.721Z,101828.16
2022-08-08T08:31:58.204Z,101834.75
2022-08-08T08:34:32.307Z,101840.66
2022-08-08T08:37:00.592Z,101842.34
2022-08-08T08:39:59.690Z,101841.13
2022-08-08T08:42:28.911Z,101851.97
2022-08-08T08:45:10.118Z,101848.84
2022-08-08T08:47:53.436Z,101845.41
2022-08-08T08:50:34.004Z,101855.16
2022-08-08T08:53:55.572Z,101842.06
2022-08-08T08:56:02.178Z,101841.91
2022-08-08T08:58:39.748Z,101832.44
2022-08-08T09:01:13.478Z,101842.03
2022-08-08T09:03:45.886Z,101846.94
2022-08-08T09:06:26.139Z,101845.59
2022-08-08T09:09:35.095Z,101841.28
2022-08-08T09:12:09.628Z,101840.41
2022-08-08T09:14:42.670Z,101844.25
2022-08-08T09:17:18.316Z,101840.56
2022-08-08T09:22:02.794Z,101838.53
2022-08-08T09:22:35.218Z,101841.16
2022-08-08T09:25:04.357Z,101834.13
2022-08-08T09:27:56.117Z,101837.16
2022-08-08T09:30:20.234Z,101831.47
2022-08-08T09:33:11.935Z,101832.25
2022-08-08T09:35:49.572Z,101833.97
2022-08-08T09:38:32.009Z,101825.25
2022-08-08T09:41:05.385Z,101824.19
2022-08-08T09:44:05.554Z,101827.41
2022-08-08T09:46:30.565Z,101830.38
2022-08-08T09:49:04.573Z,101829.28
2022-08-08T09:52:06.846Z,101826.72
2022-08-08T09:54:44.166Z,101825.13
2022-08-08T09:57:12.653Z,101821.28
2022-08-08T10:00:01.175Z,101827.72
2022-08-08T10:02:36.688Z,101824.47
2022-08-08T10:05:14.663Z,101820.84
2022-08-08T10:08:01.088Z,101821.00
2022-08-08T10:10:33.930Z,101821.59
2022-08-08T10:13:29.940Z,101825.22
2022-08-08T10:16:01.951Z,101826.47
2022-08-08T10:18:35.954Z,101820.63
2022-08-08T10:21:08.359Z,101814.31
2022-08-08T10:23:58.545Z,101811.81
2022-08-08T10:26:56.633Z,101813.28
2022-08-08T10:29:57.149Z,101808.03
2022-08-08T10:32:38.303Z,101812.88
2022-08-08T10:36:07.385Z,101812.25
2022-08-08T10:38:03.964Z,101805.97
2022-08-08T10:40:32.718Z,101804.88
2022-08-08T10:43:03.459Z,101796.88
2022-08-08T10:45:42.720Z,101804.09
2022-08-08T10:48:55.793Z,101794.59
2022-08-08T10:51:23.988Z,101800.75
2022-08-08T10:53:57.118Z,101797.75
2022-08-08T10:56:27.641Z,101801.97
2022-08-08T10:59:09.541Z,101798.16
2022-08-08T11:01:39.344Z,101799.88
2022-08-08T11:04:10.919Z,101791.25
2022-08-08T11:06:42.030Z,101790.03
2022-08-08T11:09:21.237Z,101791.91
2022-08-08T11:12:04.599Z,101790.97
2022-08-08T11:14:48.620Z,101793.44
2022-08-08T11:17:15.950Z,101793.97
2022-08-08T11:19:46.622Z,101799.03
2022-08-08T11:22:24.683Z,101799.97
2022-08-08T11:25:14.378Z,101792.78
2022-08-08T11:27:46.965Z,101796.66
2022-08-08T11:30:24.656Z,101785.03
2022-08-08T11:32:56.812Z,101794.41
2022-08-08T11:35:37.814Z,101788.66
2022-08-08T11:38:39.076Z,101790.03
2022-08-08T11:40:56.177Z,101787.97
2022-08-08T11:43:39.180Z,101794.56
2022-08-08T11:46:14.183Z,101794.06
2022-08-08T11:48:47.383Z,101786.63
2022-08-08T11:51:37.350Z,101787.94
2022-08-08T11:54:27.308Z,101784.88
2022-08-08T11:56:56.094Z,101788.88
2022-08-08T11:59:58.654Z,101788.06
2022-08-08T12:02:31.641Z,101789.59
2022-08-08T12:05:13.591Z,101789.78
2022-08-08T12:07:52.095Z,101781.06
2022-08-08T12:10:23.682Z,101776.66
2022-08-08T12:13:00.102Z,101781.56
2022-08-08T12:15:40.003Z,101774.75
2022-08-08T12:18:18.168Z,101773.81
2022-08-08T12:20:53.212Z,101778.63
2022-08-08T12:23:40.059Z,101783.25
2022-08-08T12:26:17.162Z,101774.13
2022-08-08T12:28:58.645Z,101774.91
2022-08-08T12:31:39.163Z,101773.34
2022-08-08T12:34:36.399Z,101771.16
2022-08-08T12:37:08.799Z,101778.31
2022-08-08T12:40:00.286Z,101769.94
2022-08-08T12:42:26.477Z,101771.63
2022-08-08T12:45:54.627Z,101770.16
2022-08-08T12:48:10.003Z,101762.25
2022-08-08T12:50:48.058Z,101770.13
2022-08-08T12:53:30.143Z,101770.50
2022-08-08T12:56:19.234Z,101764.00
2022-08-08T12:58:54.225Z,101758.59
2022-08-08T13:01:36.841Z,101755.16
2022-08-08T13:04:19.312Z,101755.06
2022-08-08T13:06:54.615Z,101748.81
2022-08-08T13:10:03.977Z,101751.19
2022-08-08T13:12:35.935Z,101746.78
2022-08-08T13:15:13.689Z,101745.78
2022-08-08T13:18:08.594Z,101749.34
2022-08-08T13:20:27.867Z,101744.19
2022-08-08T13:23:29.968Z,101737.84
2022-08-08T13:25:43.525Z,101735.00
2022-08-08T13:28:10.016Z,101738.19
2022-08-08T13:30:36.539Z,101743.66
2022-08-08T13:33:04.185Z,101736.56
2022-08-08T13:35:40.500Z,101737.44
2022-08-08T13:38:13.326Z,101743.09
2022-08-08T13:40:44.867Z,101740.47
2022-08-08T13:43:12.837Z,101732.72
2022-08-08T13:45:40.833Z,101735.91
2022-08-08T13:48:14.859Z,101737.63
2022-08-08T13:50:55.302Z,101745.25
2022-08-08T13:53:33.823Z,101736.28
2022-08-08T13:56:05.725Z,101737.41
2022-08-08T13:58:33.109Z,101734.38
2022-08-08T14:01:15.488Z,101737.94
2022-08-08T14:03:54.516Z,101733.00
2022-08-08T14:06:34.012Z,101731.50
2022-08-08T14:09:25.404Z,101739.84
2022-08-08T14:11:49.976Z,101738.47
2022-08-08T14:14:21.173Z,101736.38
2022-08-08T14:16:53.879Z,101732.56
2022-08-08T14:19:57.609Z,101729.81
2022-08-08T14:22:20.995Z,101730.25
2022-08-08T14:24:58.882Z,101737.34
2022-08-08T14:27:33.398Z,101744.81
2022-08-08T14:30:18.987Z,101730.06
2022-08-08T14:32:53.428Z,101734.72
2022-08-08T14:35:28.393Z,101735.59
2022-08-08T14:38:09.381Z,101737.72
2022-08-08T14:40:52.820Z,101733.53
2022-08-08T14:44:02.602Z,101729.97
2022-08-08T14:46:15.338Z,101732.34
2022-08-08T14:48:56.882Z,101736.19
2022-08-08T14:51:47.163Z,101733.66
2022-08-08T14:54:13.447Z,101735.31
2022-08-08T14:56:42.827Z,101734.84
2022-08-08T14:59:22.653Z,101727.25
2022-08-08T15:02:00.600Z,101726.06
2022-08-08T15:04:27.176Z,101726.13
2022-08-08T15:06:55.525Z,101729.63
2022-08-08T15:09:23.177Z,101732.91
2022-08-08T15:11:53.148Z,101729.44
2022-08-08T15:14:24.961Z,101732.72
2022-08-08T15:16:51.824Z,101730.69
2022-08-08T15:19:18.332Z,101725.63
2022-08-08T15:21:46.621Z,101724.50
2022-08-08T15:24:15.921Z,101725.44
2022-08-08T15:26:52.209Z,101728.03
2022-08-08T15:29:22.714Z,101726.06
2022-08-08T15:32:03.642Z,101726.25
2022-08-08T15:34:38.694Z,101720.88
2022-08-08T15:37:05.804Z,101714.84
2022-08-08T15:39:39.072Z,101720.31
2022-08-08T15:42:10.259Z,101714.47
2022-08-08T15:44:37.638Z,101721.75
2022-08-08T15:47:07.154Z,101716.44
2022-08-08T15:49:44.389Z,101709.47
2022-08-08T15:52:14.918Z,101712.16
2022-08-08T15:54:42.841Z,101710.16
2022-08-08T15:57:15.372Z,101712.97
2022-08-08T16:00:05.284Z,101720.38
2022-08-08T16:02:31.548Z,101713.59
2022-08-08T16:04:59.985Z,101717.00
2022-08-08T16:07:50.893Z,101720.50
2022-08-08T16:13:10.727Z,101724.72
2022-08-08T16:13:27.980Z,101723.88
2022-08-08T16:15:58.637Z,101721.38
2022-08-08T16:18:35.773Z,101725.28
2022-08-08T16:21:02.898Z,101725.78
2022-08-08T16:23:32.317Z,101727.16
2022-08-08T16:26:12.846Z,101724.31
2022-08-08T16:28:44.349Z,101722.84
2022-08-08T16:31:12.332Z,101721.25
2022-08-08T16:33:40.163Z,101722.88
2022-08-08T16:36:09.872Z,101719.59
2022-08-08T16:38:44.679Z,101723.22
2022-08-08T16:41:18.362Z,101718.97
2022-08-08T16:43:51.115Z,101723.97
2022-08-08T16:46:43.608Z,101726.34
2022-08-08T16:49:07.996Z,101727.50
2022-08-08T16:55:00.272Z,101726.56
2022-08-08T16:55:02.592Z,101719.88
2022-08-08T16:58:11.856Z,101726.41
2022-08-08T17:00:00.830Z,101721.22
2022-08-08T17:02:37.884Z,101719.69
2022-08-08T17:05:06.346Z,101727.84
2022-08-08T17:07:34.092Z,101735.09
2022-08-08T17:10:04.973Z,101739.13
2022-08-08T17:12:33.961Z,101739.50
2022-08-08T17:15:17.611Z,101744.28
2022-08-08T17:18:02.249Z,101737.91
2022-08-08T17:20:39.445Z,101732.56
2022-08-08T17:23:25.647Z,101742.69
2022-08-08T17:25:54.251Z,101748.25
2022-08-08T17:28:31.502Z,101745.00
2022-08-08T17:31:43.428Z,101743.41
2022-08-08T17:34:49.035Z,101751.00
2022-08-08T17:36:38.237Z,101750.59
2022-08-08T17:40:03.952Z,101748.53
2022-08-08T17:42:12.202Z,101757.59
2022-08-08T17:44:39.847Z,101757.97
2022-08-08T17:47:10.949Z,101762.31
2022-08-08T17:49:43.724Z,101765.59
2022-08-08T17:52:10.308Z,101761.75
2022-08-08T17:54:37.521Z,101772.59
2022-08-08T17:57:05.700Z,101765.66
2022-08-08T17:59:36.223Z,101767.19
2022-08-08T18:02:18.942Z,101769.69
2022-08-08T18:04:54.882Z,101769.31
2022-08-08T18:08:02.979Z,101773.69
2022-08-08T18:10:08.156Z,101768.72
2022-08-08T18:12:35.270Z,101768.09
2022-08-08T18:15:03.651Z,101768.22
2022-08-08T18:18:09.445Z,101773.53
2022-08-08T18:20:43.703Z,101777.88
2022-08-08T18:23:07.034Z,101787.94
2022-08-08T18:25:41.204Z,101789.28
2022-08-08T18:28:07.817Z,101781.09
2022-08-08T18:30:41.049Z,101796.41
2022-08-08T18:33:10.422Z,101793.28
2022-08-08T18:35:41.784Z,101798.94
2022-08-08T18:38:16.991Z,101794.75
2022-08-08T18:40:46.131Z,101805.44
2022-08-08T18:43:16.458Z,101814.09
2022-08-08T18:46:00.556Z,101815.16
2022-08-08T18:48:31.049Z,101817.47
2022-08-08T18:50:58.588Z,101824.41
2022-08-08T18:54:00.128Z,101828.19
2022-08-08T18:56:26.583Z,101838.06
2022-08-08T18:58:53.738Z,101834.91
2022-08-08T19:02:26.166Z,101840.53
2022-08-08T19:04:10.895Z,101851.41
2022-08-08T19:06:39.514Z,101853.09
2022-08-08T19:09:13.587Z,101848.97
2022-08-08T19:11:46.309Z,101856.50
2022-08-08T19:14:20.809Z,101860.16
2022-08-08T19:16:48.086Z,101855.94
2022-08-08T19:19:15.049Z,101864.22
2022-08-08T19:21:49.490Z,101863.53
2022-08-08T19:24:39.358Z,101867.16
2022-08-08T19:27:05.753Z,101875.41
2022-08-08T19:29:40.554Z,101867.78
2022-08-08T19:32:12.766Z,101876.31
2022-08-08T19:34:41.377Z,101878.25
2022-08-08T19:37:16.307Z,101877.78
2022-08-08T19:39:45.791Z,101882.75
2022-08-08T19:42:17.558Z,101877.94
2022-08-08T19:44:46.193Z,101876.06
2022-08-08T19:47:24.525Z,101879.78
2022-08-08T19:49:59.954Z,101879.06
2022-08-08T19:52:34.732Z,101885.72
2022-08-08T19:55:12.662Z,101886.34
2022-08-08T19:57:42.591Z,101890.84
2022-08-08T20:00:29.257Z,101891.78
2022-08-08T20:02:56.994Z,101891.31
2022-08-08T20:06:13.762Z,101889.72
2022-08-08T20:08:27.984Z,101901.31
2022-08-08T20:10:57.142Z,101905.19
2022-08-08T20:14:33.055Z,101900.81
2022-08-08T20:16:10.629Z,101905.06
2022-08-08T20:18:52.751Z,101906.25
2022-08-08T20:21:23.053Z,101917.09
2022-08-08T20:23:52.645Z,101924.06
2022-08-08T20:26:33.417Z,101928.53
2022-08-08T20:29:02.261Z,101918.41
2022-08-08T20:32:02.641Z,101919.91
2022-08-08T20:34:28.918Z,101922.88
2022-08-08T20:36:58.762Z,101925.19
2022-08-08T20:39:26.916Z,101921.53
2022-08-08T20:42:00.703Z,101931.38
2022-08-08T20:44:27.352Z,101935.63
2022-08-08T20:46:53.916Z,101926.84
2022-08-08T20:49:21.878Z,101931.19
2022-08-08T20:51:48.696Z,101929.19
2022-08-08T20:54:25.974Z,101925.34
2022-08-08T20:57:05.814Z,101935.72
2022-08-08T20:59:41.805Z,101935.47
2022-08-08T21:02:12.523Z,101928.97
2022-08-08T21:04:40.520Z,101927.47
2022-08-08T21:07:15.863Z,101927.09
2022-08-08T21:09:48.747Z,101930.53
2022-08-08T21:12:33.085Z,101929.34
2022-08-08T21:15:07.102Z,101938.28
2022-08-08T21:17:37.087Z,101931.44
2022-08-08T21:20:04.613Z,101939.59
2022-08-08T21:22:31.190Z,101929.91
2022-08-08T21:24:58.358Z,101944.22
2022-08-08T21:28:05.452Z,101942.03
2022-08-08T21:30:18.878Z,101948.53
2022-08-08T21:32:52.111Z,101947.94
2022-08-08T21:36:17.071Z,101951.72
2022-08-08T21:38:16.279Z,101952.19
2022-08-08T21:40:55.964Z,101950.41
2022-08-08T21:43:25.287Z,101950.41
2022-08-08T21:48:06.760Z,101954.53
2022-08-08T21:48:41.696Z,101951.63
2022-08-08T21:51:11.333Z,101951.91
2022-08-08T21:54:23.063Z,101946.00
2022-08-08T21:56:33.865Z,101947.78
2022-08-08T21:59:05.783Z,101938.78
2022-08-08T22:01:39.150Z,101953.69
2022-08-08T22:04:10.434Z,101947.47
2022-08-08T22:06:39.728Z,101945.53
2022-08-08T22:09:09.775Z,101947.97
2022-08-08T22:11:59.549Z,101955.00
2022-08-08T22:14:26.733Z,101948.84
2022-08-08T22:16:56.059Z,101950.16
2022-08-08T22:19:23.927Z,101941.84
2022-08-08T22:21:51.501Z,101957.72
2022-08-08T22:24:18.056Z,101952.28
2022-08-08T22:27:02.183Z,101954.88
2022-08-08T22:30:01.649Z,101946.38
2022-08-08T22:32:18.976Z,101954.88
2022-08-08T22:34:50.499Z,101953.41
2022-08-08T22:37:49.041Z,101958.72
2022-08-08T22:40:07.478Z,101959.69
2022-08-08T22:42:40.351Z,101963.34
2022-08-08T22:45:13.014Z,101965.22
2022-08-08T22:47:46.973Z,101972.47
2022-08-08T22:50:26.178Z,101963.81
2022-08-08T22:54:28.387Z,101972.69
2022-08-08T22:55:58.454Z,101969.78
2022-08-08T22:58:33.817Z,101973.28
2022-08-08T23:01:16.700Z,101961.38
2022-08-08T23:03:54.971Z,101966.47
2022-08-08T23:06:22.567Z,101966.88
2022-08-08T23:08:55.652Z,101962.66
2022-08-08T23:11:30.997Z,101967.63
2022-08-08T23:14:15.879Z,101960.16
2022-08-08T23:16:45.210Z,101965.13
2022-08-08T23:19:15.266Z,101960.38
2022-08-08T23:21:42.415Z,101965.97
2022-08-08T23:24:09.367Z,101967.50
2022-08-08T23:26:35.914Z,101964.44
2022-08-08T23:29:04.482Z,101969.41
2022-08-08T23:31:38.872Z,101967.94
2022-08-08T23:34:16.726Z,101969.22
2022-08-08T23:36:45.936Z,101960.06
2022-08-08T23:39:12.854Z,101970.97
2022-08-08T23:41:45.631Z,101959.25
2022-08-08T23:44:14.008Z,101964.09
2022-08-08T23:49:02.737Z,101968.06
2022-08-08T23:49:26.962Z,101970.28
2022-08-08T23:52:05.410Z,101959.00
2022-08-08T23:54:42.970Z,101965.03
2022-08-08T23:57:38.790Z,101970.13
